createdAt,value
2022-08-12T00:00:29.079Z,7.70
2022-08-12T00:03:52.350Z,7.13
2022-08-12T00:07:13.566Z,6.13
2022-08-12T00:10:34.110Z,6.33
2022-08-12T00:13:54.691Z,6.53
2022-08-12T00:17:16.286Z,6.07
2022-08-12T00:20:38.287Z,6.47
2022-08-12T00:24:01.117Z,4.50
2022-08-12T00:27:25.113Z,2.80
2022-08-12T00:30:47.764Z,2.83
2022-08-12T00:34:08.516Z,3.17
2022-08-12T00:37:31.888Z,3.00
2022-08-12T00:40:52.659Z,3.40
2022-08-12T00:43:57.717Z,3.10
2022-08-12T00:47:02.680Z,2.70
2022-08-12T00:50:06.796Z,2.53
2022-08-12T00:53:11.391Z,2.70
2022-08-12T00:56:15.027Z,2.70
2022-08-12T00:59:17.985Z,2.50
2022-08-12T01:02:26.410Z,2.63
2022-08-12T01:05:48.548Z,2.60
2022-08-12T01:09:11.811Z,2.23
2022-08-12T01:12:15.072Z,2.57
2022-08-12T01:15:19.316Z,2.60
2022-08-12T01:18:23.670Z,2.30
2022-08-12T01:21:46.942Z,2.63
2022-08-12T01:25:07.290Z,2.90
2022-08-12T01:28:13.751Z,3.00
2022-08-12T01:31:18.522Z,2.57
2022-08-12T01:34:36.374Z,2.60
2022-08-12T01:37:48.359Z,2.70
2022-08-12T01:40:54.194Z,2.80
2022-08-12T01:44:01.027Z,2.87
2022-08-12T01:47:12.158Z,2.77
2022-08-12T01:50:22.622Z,2.97
2022-08-12T01:53:27.229Z,2.70
2022-08-12T01:56:34.883Z,3.13
2022-08-12T01:59:50.828Z,2.83
2022-08-12T02:03:04.601Z,2.70
2022-08-12T02:06:32.122Z,2.60
2022-08-12T02:10:08.540Z,2.83
2022-08-12T02:13:41.852Z,3.00
2022-08-12T02:16:58.813Z,2.90
2022-08-12T02:20:14.150Z,2.87
2022-08-12T02:23:19.833Z,3.00
2022-08-12T02:26:26.027Z,3.00
2022-08-12T02:29:30.650Z,3.10
2022-08-12T02:32:40.374Z,3.00
2022-08-12T02:35:43.571Z,2.73
2022-08-12T02:38:47.265Z,3.10
2022-08-12T02:41:53.262Z,2.93
2022-08-12T02:44:59.375Z,2.83
2022-08-12T02:48:06.531Z,3.20
2022-08-12T02:51:12.880Z,2.90
2022-08-12T02:54:15.666Z,3.30
2022-08-12T02:57:21.035Z,3.27
2022-08-12T03:00:28.721Z,2.80
2022-08-12T03:03:33.477Z,2.97
2022-08-12T03:06:52.876Z,3.40
2022-08-12T03:10:05.252Z,3.03
2022-08-12T03:13:10.960Z,2.90
2022-08-12T03:16:15.175Z,3.03
2022-08-12T03:19:21.473Z,3.00
2022-08-12T03:22:24.701Z,3.30
2022-08-12T03:25:27.947Z,3.30
2022-08-12T03:28:51.567Z,3.53
2022-08-12T03:32:01.116Z,3.20
2022-08-12T03:35:07.265Z,3.20
2022-08-12T03:38:16.437Z,3.17
2022-08-12T03:41:35.430Z,3.37
2022-08-12T03:44:57.904Z,3.03
2022-08-12T03:48:24.743Z,3.30
2022-08-12T03:51:45.340Z,3.00
2022-08-12T03:55:05.814Z,3.40
2022-08-12T03:58:26.443Z,3.23
2022-08-12T04:01:29.372Z,3.27
2022-08-12T04:04:34.728Z,3.27
2022-08-12T04:07:38.468Z,3.33
2022-08-12T04:11:18.941Z,4.13
2022-08-12T04:14:21.625Z,3.20
2022-08-12T04:17:25.282Z,3.10
2022-08-12T04:20:29.383Z,3.30
2022-08-12T04:23:33.780Z,3.07
2022-08-12T04:26:37.020Z,3.40
2022-08-12T04:30:30.212Z,3.30
2022-08-12T04:33:03.915Z,3.63
2022-08-12T04:36:08.980Z,3.53
2022-08-12T04:39:12.948Z,3.50
2022-08-12T04:42:16.104Z,3.77
2022-08-12T04:45:19.262Z,4.17
2022-08-12T04:48:25.443Z,3.70
2022-08-12T04:51:30.984Z,3.53
2022-08-12T04:54:34.595Z,3.73
2022-08-12T04:57:38.466Z,3.40
2022-08-12T05:00:41.208Z,3.63
2022-08-12T05:03:46.074Z,3.63
2022-08-12T05:06:50.958Z,3.47
2022-08-12T05:09:59.970Z,3.30
2022-08-12T05:13:06.518Z,3.60
2022-08-12T05:16:10.018Z,3.60
2022-08-12T05:19:22.385Z,3.47
2022-08-12T05:22:27.221Z,3.73
2022-08-12T05:25:29.918Z,3.70
2022-08-12T05:28:33.763Z,3.70
2022-08-12T05:31:47.713Z,3.30
2022-08-12T05:34:51.928Z,4.43
2022-08-12T05:38:10.404Z,3.60
2022-08-12T05:41:20.603Z,4.00
2022-08-12T05:44:23.773Z,3.97
2022-08-12T05:47:38.516Z,4.00
2022-08-12T05:50:52.604Z,4.13
2022-08-12T05:53:58.590Z,4.10
2022-08-12T05:57:02.195Z,4.30
2022-08-12T06:00:05.934Z,3.93
2022-08-12T06:03:08.933Z,3.30
2022-08-12T06:06:12.266Z,3.90
2022-08-12T06:09:16.357Z,4.10
2022-08-12T06:12:23.712Z,3.37
2022-08-12T06:15:26.966Z,3.93
2022-08-12T06:18:31.178Z,3.80
2022-08-12T06:21:34.392Z,3.70
2022-08-12T06:24:38.468Z,3.80
2022-08-12T06:28:06.088Z,3.40
2022-08-12T06:31:25.768Z,3.40
2022-08-12T06:35:26.732Z,3.40
2022-08-12T06:37:57.053Z,3.60
2022-08-12T06:41:19.925Z,3.60
2022-08-12T06:44:22.957Z,3.97
2022-08-12T06:47:25.766Z,4.00
2022-08-12T06:50:29.211Z,3.67
2022-08-12T06:53:33.919Z,5.07
2022-08-12T06:57:02.895Z,4.27
2022-08-12T07:00:01.685Z,3.30
2022-08-12T07:03:16.276Z,3.20
2022-08-12T07:06:25.703Z,2.97
2022-08-12T07:10:01.132Z,2.60
2022-08-12T07:12:55.391Z,2.53
2022-08-12T07:15:58.961Z,2.80
2022-08-12T07:19:04.201Z,2.70
2022-08-12T07:22:08.058Z,2.57
2022-08-12T07:25:29.137Z,2.50
2022-08-12T07:28:35.520Z,2.60
2022-08-12T07:31:42.760Z,2.77
2022-08-12T07:34:47.893Z,3.07
2022-08-12T07:37:53.201Z,2.67
2022-08-12T07:40:59.771Z,2.70
2022-08-12T07:44:06.576Z,2.50
2022-08-12T07:47:09.340Z,2.33
2022-08-12T07:50:23.436Z,2.20
2022-08-12T07:53:26.612Z,2.70
2022-08-12T07:56:31.173Z,2.30
2022-08-12T07:59:35.850Z,2.30
2022-08-12T08:02:38.829Z,2.77
2022-08-12T08:05:46.545Z,2.37
2022-08-12T08:08:49.754Z,2.30
2022-08-12T08:12:18.747Z,2.37
2022-08-12T08:15:51.142Z,2.20
2022-08-12T08:18:50.627Z,2.13
2022-08-12T08:21:55.179Z,2.00
2022-08-12T08:24:58.714Z,1.97
2022-08-12T08:28:03.753Z,2.27
2022-08-12T08:31:07.878Z,2.10
2022-08-12T08:34:27.458Z,2.20
2022-08-12T08:37:37.089Z,2.50
2022-08-12T08:41:01.568Z,2.43
2022-08-12T08:44:05.321Z,2.30
2022-08-12T08:47:11.200Z,2.27
2022-08-12T08:50:16.238Z,2.00
2022-08-12T08:53:19.850Z,2.50
2022-08-12T08:56:22.797Z,2.33
2022-08-12T08:59:25.543Z,2.30
2022-08-12T09:02:29.671Z,1.90
2022-08-12T09:06:01.828Z,2.10
2022-08-12T09:08:55.805Z,2.10
2022-08-12T09:12:16.552Z,1.80
2022-08-12T09:15:35.797Z,1.60
2022-08-12T09:18:41.316Z,1.80
2022-08-12T09:21:54.767Z,1.80
2022-08-12T09:25:00.063Z,1.60
2022-08-12T09:28:10.729Z,1.50
2022-08-12T09:32:03.969Z,1.50
2022-08-12T09:34:42.473Z,1.50
2022-08-12T09:37:58.119Z,1.40
2022-08-12T09:42:33.339Z,1.40
2022-08-12T09:44:42.644Z,1.37
2022-08-12T09:47:59.546Z,1.30
2022-08-12T09:51:11.015Z,1.53
2022-08-12T09:54:34.250Z,1.70
2022-08-12T09:58:45.199Z,1.60
2022-08-12T10:01:06.230Z,1.43
2022-08-12T10:04:19.887Z,1.60
2022-08-12T10:07:28.706Z,1.30
2022-08-12T10:10:58.995Z,1.50
2022-08-12T10:14:06.914Z,1.50
2022-08-12T10:17:17.367Z,1.70
2022-08-12T10:20:23.387Z,1.40
2022-08-12T10:23:39.410Z,1.60
2022-08-12T10:27:05.918Z,1.40
2022-08-12T10:30:39.492Z,1.57
2022-08-12T10:33:55.763Z,1.53
2022-08-12T10:37:21.020Z,1.53
2022-08-12T10:40:32.039Z,1.20
2022-08-12T10:43:55.299Z,1.43
2022-08-12T10:46:59.977Z,1.40
2022-08-12T10:50:28.662Z,1.50
2022-08-12T10:53:44.386Z,1.47
2022-08-12T10:56:54.135Z,1.40
2022-08-12T11:00:34.753Z,1.30
2022-08-12T11:04:22.340Z,1.23
2022-08-12T11:07:07.717Z,1.40
2022-08-12T11:10:13.913Z,1.40
2022-08-12T11:13:19.427Z,1.83
2022-08-12T11:16:42.268Z,1.50
2022-08-12T11:20:05.990Z,1.40
2022-08-12T11:23:25.787Z,1.50
2022-08-12T11:26:31.879Z,0.77
2022-08-12T11:30:05.747Z,1.00
2022-08-12T11:33:00.109Z,1.40
2022-08-12T11:36:14.654Z,1.23
2022-08-12T11:39:17.661Z,1.30
2022-08-12T11:42:46.983Z,1.33
2022-08-12T11:45:53.223Z,1.30
2022-08-12T11:48:59.321Z,1.20
2022-08-12T11:52:02.775Z,1.30
2022-08-12T11:55:06.312Z,1.07
2022-08-12T11:59:28.634Z,1.10
2022-08-12T12:02:02.015Z,1.00
2022-08-12T12:04:56.555Z,1.20
2022-08-12T12:08:40.979Z,1.15
2022-08-12T12:11:23.577Z,1.50
2022-08-12T12:14:38.058Z,1.20
2022-08-12T12:17:43.838Z,1.20
2022-08-12T12:20:47.083Z,1.13
2022-08-12T12:23:50.686Z,1.33
2022-08-12T12:27:00.527Z,1.50
2022-08-12T12:30:19.805Z,1.13
2022-08-12T12:33:57.448Z,1.02
2022-08-12T12:36:54.767Z,1.20
2022-08-12T12:39:58.647Z,1.20
2022-08-12T12:43:05.097Z,1.10
2022-08-12T12:46:08.788Z,1.10
2022-08-12T12:49:15.342Z,1.17
2022-08-12T12:52:21.311Z,1.20
2022-08-12T12:55:25.270Z,1.20
2022-08-12T12:58:35.453Z,1.05
2022-08-12T13:01:41.982Z,1.10
2022-08-12T13:04:47.809Z,1.17
2022-08-12T13:08:01.311Z,1.30
2022-08-12T13:11:06.565Z,1.30
2022-08-12T13:14:28.315Z,1.30
2022-08-12T13:18:02.068Z,1.30
2022-08-12T13:21:03.069Z,1.10
2022-08-12T13:24:09.968Z,1.25
2022-08-12T13:27:13.385Z,1.05
2022-08-12T13:30:20.299Z,1.27
2022-08-12T13:33:28.571Z,1.42
2022-08-12T13:36:33.385Z,1.20
2022-08-12T13:39:37.836Z,1.10
2022-08-12T13:42:40.872Z,1.17
2022-08-12T13:45:44.742Z,0.65
2022-08-12T13:48:48.276Z,1.00
2022-08-12T13:51:54.277Z,1.48
2022-08-12T13:54:57.506Z,1.40
2022-08-12T13:58:01.706Z,1.23
2022-08-12T14:01:06.480Z,1.20
2022-08-12T14:04:18.237Z,1.20
2022-08-12T14:07:29.527Z,1.55
2022-08-12T14:11:02.185Z,1.15
2022-08-12T14:14:12.899Z,1.15
2022-08-12T14:17:20.723Z,1.17
2022-08-12T14:20:26.661Z,1.30
2022-08-12T14:24:04.409Z,1.30
2022-08-12T14:26:56.758Z,0.88
2022-08-12T14:30:15.683Z,0.90
2022-08-12T14:33:19.766Z,1.30
2022-08-12T14:36:25.514Z,1.42
2022-08-12T14:39:29.849Z,1.20
2022-08-12T14:42:33.841Z,1.20
2022-08-12T14:45:47.033Z,1.10
2022-08-12T14:48:53.737Z,1.05
2022-08-12T14:52:55.728Z,0.80
2022-08-12T14:59:00.107Z,1.17
2022-08-12T15:02:04.033Z,0.90
2022-08-12T15:06:04.927Z,1.10
2022-08-12T15:08:38.661Z,1.20
2022-08-12T15:11:48.921Z,1.17
2022-08-12T15:15:00.858Z,1.10
2022-08-12T15:18:05.579Z,1.25
2022-08-12T15:21:11.776Z,1.20
2022-08-12T15:24:14.667Z,1.40
2022-08-12T15:27:22.198Z,1.98
2022-08-12T15:30:37.286Z,1.00
2022-08-12T15:33:46.328Z,1.15
2022-08-12T15:36:54.862Z,1.25
2022-08-12T15:40:01.128Z,1.15
2022-08-12T15:43:08.132Z,1.20
2022-08-12T15:46:15.762Z,1.10
2022-08-12T15:49:19.448Z,0.93
2022-08-12T15:52:27.619Z,1.08
2022-08-12T15:55:33.743Z,1.20
2022-08-12T15:58:41.236Z,1.20
2022-08-12T16:01:44.548Z,0.90
2022-08-12T16:04:51.491Z,0.80
2022-08-12T16:07:55.942Z,1.00
2022-08-12T16:10:58.704Z,0.95
2022-08-12T16:14:04.040Z,0.90
2022-08-12T16:17:08.874Z,0.88
2022-08-12T16:20:17.055Z,1.00
2022-08-12T16:23:35.961Z,0.90
2022-08-12T16:26:51.458Z,1.00
2022-08-12T16:29:59.251Z,0.93
2022-08-12T16:33:08.922Z,0.85
2022-08-12T16:36:13.589Z,0.60
2022-08-12T16:39:22.206Z,0.52
2022-08-12T16:42:28.399Z,0.50
2022-08-12T16:46:05.382Z,0.40
2022-08-12T16:48:59.616Z,0.52
2022-08-12T16:52:14.541Z,0.70
2022-08-12T16:55:19.560Z,0.60
2022-08-12T16:58:28.510Z,0.73
2022-08-12T17:01:37.576Z,0.50
2022-08-12T17:04:42.595Z,0.77
2022-08-12T17:07:56.250Z,0.50
2022-08-12T17:10:59.780Z,0.60
2022-08-12T17:14:02.892Z,0.75
2022-08-12T17:17:26.104Z,0.50
2022-08-12T17:20:38.749Z,0.60
2022-08-12T17:23:53.546Z,0.60
2022-08-12T17:26:58.522Z,0.68
2022-08-12T17:30:04.570Z,0.60
2022-08-12T17:33:17.150Z,0.57
2022-08-12T17:36:27.449Z,0.77
2022-08-12T17:40:06.513Z,0.60
2022-08-12T17:42:56.154Z,0.80
2022-08-12T17:46:01.987Z,0.77
2022-08-12T17:50:02.630Z,0.80
2022-08-12T17:52:33.217Z,0.67
2022-08-12T17:55:43.354Z,0.90
2022-08-12T17:58:58.161Z,0.90
2022-08-12T18:02:02.874Z,0.80
2022-08-12T18:05:10.599Z,0.90
2022-08-12T18:08:15.398Z,0.80
2022-08-12T18:12:03.747Z,0.80
2022-08-12T18:15:00.509Z,0.70
2022-08-12T18:18:04.634Z,0.63
2022-08-12T18:21:09.240Z,0.70
2022-08-12T18:24:22.074Z,0.90
2022-08-12T18:27:44.667Z,0.70
2022-08-12T18:30:52.496Z,0.70
2022-08-12T18:34:00.837Z,0.90
2022-08-12T18:37:29.429Z,0.80
2022-08-12T18:40:54.647Z,0.70
2022-08-12T18:44:03.003Z,0.90
2022-08-12T18:47:09.590Z,0.60
2022-08-12T18:50:16.289Z,1.00
2022-08-12T18:54:06.044Z,1.07
2022-08-12T18:56:46.565Z,0.90
2022-08-12T19:00:00.683Z,0.90
2022-08-12T19:03:06.235Z,0.80
2022-08-12T19:06:28.280Z,0.93
2022-08-12T19:09:39.010Z,1.03
2022-08-12T19:13:25.154Z,1.20
2022-08-12T19:16:37.337Z,1.10
2022-08-12T19:19:41.794Z,1.30
2022-08-12T19:23:02.195Z,1.70
2022-08-12T19:26:12.604Z,1.50
2022-08-12T19:29:18.541Z,1.23
2022-08-12T19:32:24.074Z,1.30
2022-08-12T19:36:07.769Z,1.17
2022-08-12T19:38:57.060Z,1.00
2022-08-12T19:42:02.582Z,1.10
2022-08-12T19:45:12.308Z,1.00
2022-08-12T19:48:18.397Z,1.60
2022-08-12T19:51:33.285Z,1.10
2022-08-12T19:54:36.878Z,1.13
2022-08-12T19:57:42.634Z,2.20
2022-08-12T20:01:05.200Z,1.83
2022-08-12T20:04:14.934Z,3.00
2022-08-12T20:07:23.013Z,2.10
2022-08-12T20:10:35.405Z,2.37
2022-08-12T20:13:42.870Z,1.70
2022-08-12T20:16:52.480Z,1.70
2022-08-12T20:20:19.206Z,1.90
2022-08-12T20:23:50.758Z,1.57
2022-08-12T20:26:48.315Z,1.33
2022-08-12T20:29:54.630Z,1.07
2022-08-12T20:33:00.588Z,1.10
2022-08-12T20:36:12.934Z,1.20
2022-08-12T20:39:53.425Z,1.27
2022-08-12T20:42:53.662Z,1.30
2022-08-12T20:45:58.391Z,1.20
2022-08-12T20:49:14.842Z,1.30
2022-08-12T20:52:22.905Z,1.50
2022-08-12T20:55:42.370Z,1.30
2022-08-12T20:58:49.861Z,1.20
2022-08-12T21:01:54.373Z,1.20
2022-08-12T21:05:21.883Z,1.13
2022-08-12T21:08:26.534Z,1.50
2022-08-12T21:11:30.413Z,1.50
2022-08-12T21:14:39.686Z,1.23
2022-08-12T21:18:11.642Z,1.30
2022-08-12T21:21:40.388Z,1.17
2022-08-12T21:24:50.714Z,1.30
2022-08-12T21:27:58.763Z,1.63
2022-08-12T21:32:36.135Z,1.50
2022-08-12T21:34:31.258Z,1.57
2022-08-12T21:37:37.103Z,1.60
2022-08-12T21:40:52.597Z,1.50
2022-08-12T21:44:00.858Z,1.43
2022-08-12T21:47:20.392Z,1.70
2022-08-12T21:50:29.467Z,1.60
2022-08-12T21:54:07.022Z,1.50
2022-08-12T21:56:56.163Z,1.80
2022-08-12T21:59:59.156Z,1.60
2022-08-12T22:04:01.814Z,1.60
2022-08-12T22:06:53.476Z,1.40
2022-08-12T22:09:57.315Z,1.80
2022-08-12T22:13:01.160Z,1.70
2022-08-12T22:16:05.053Z,1.77
2022-08-12T22:19:07.808Z,1.73
2022-08-12T22:22:12.462Z,1.60
2022-08-12T22:25:16.730Z,1.33
2022-08-12T22:28:40.550Z,1.30
2022-08-12T22:31:43.610Z,1.27
2022-08-12T22:34:47.099Z,1.30
2022-08-12T22:37:53.560Z,1.60
2022-08-12T22:41:01.720Z,1.53
2022-08-12T22:44:23.374Z,1.40
2022-08-12T22:47:55.171Z,1.43
2022-08-12T22:50:59.705Z,1.50
2022-08-12T22:54:03.876Z,1.50
2022-08-12T22:57:11.990Z,1.60
2022-08-12T23:00:23.600Z,1.40
2022-08-12T23:03:48.456Z,1.20
2022-08-12T23:06:55.619Z,1.37
2022-08-12T23:09:59.656Z,1.33
2022-08-12T23:13:21.693Z,1.20
2022-08-12T23:16:31.847Z,1.37
2022-08-12T23:19:38.469Z,1.40
2022-08-12T23:23:02.905Z,1.50
2022-08-12T23:26:10.358Z,1.37
2022-08-12T23:29:29.461Z,1.50
2022-08-12T23:32:35.219Z,1.30
2022-08-12T23:35:53.917Z,1.30
2022-08-12T23:39:03.743Z,1.50
2022-08-12T23:42:17.700Z,1.30
2022-08-12T23:45:31.295Z,1.50
2022-08-12T23:48:35.214Z,1.30
2022-08-12T23:51:39.119Z,1.73
2022-08-12T23:54:45.877Z,1.40
2022-08-12T23:58:20.653Z,1.90
